Time;durP1;ratioP1;P1;durP2;ratioP2;P2;SDS_P1;SDS_P2;PMS_P1;PMS_P2;Temp;Humidity;BMP_temperature;BMP_pressure;BME280_temperature;BME280_humidity;BME280_pressure;Samples;Min_cycle;Max_cycle;Signal;HPM_P1;HPM_P2
2023/06/21 00:01:56;;;;;;;11.95;10.63;;;22.30;1.00;;;;;;5075166;28;20470;-58
2023/06/21 00:04:22;;;;;;;17.88;10.88;;;22.30;1.00;;;;;;5075132;28;20031;-59
2023/06/21 00:06:51;;;;;;;15.45;10.07;;;22.40;1.00;;;;;;5074909;28;20028;-58
2023/06/21 00:09:16;;;;;;;15.10;10.95;;;22.30;1.00;;;;;;5074619;28;20107;-58
2023/06/21 00:11:42;;;;;;;15.40;11.50;;;22.30;1.00;;;;;;5074786;28;20099;-58
2023/06/21 00:14:07;;;;;;;13.52;11.10;;;22.30;1.00;;;;;;5074578;28;20643;-58
2023/06/21 00:16:33;;;;;;;22.00;11.48;;;22.30;1.00;;;;;;5074944;28;20035;-58
2023/06/21 00:18:59;;;;;;;22.90;12.60;;;22.20;1.00;;;;;;5074926;28;20028;-59
2023/06/21 00:21:24;;;;;;;13.82;10.85;;;22.10;1.00;;;;;;5073170;28;20032;-58
2023/06/21 00:23:50;;;;;;;18.17;11.68;;;21.90;10.00;;;;;;5074503;28;20035;-56
2023/06/21 00:26:16;;;;;;;15.93;12.82;;;21.90;1.00;;;;;;5074048;28;20028;-58
2023/06/21 00:28:41;;;;;;;17.73;12.20;;;21.80;7.90;;;;;;5074581;28;20025;-58
2023/06/21 00:31:10;;;;;;;21.92;13.00;;;21.80;8.00;;;;;;5074592;28;20032;-58
2023/06/21 00:33:37;;;;;;;17.33;12.40;;;21.70;10.90;;;;;;5073304;28;20380;-59
2023/06/21 00:36:03;;;;;;;16.45;11.23;;;21.50;23.90;;;;;;5074658;28;20032;-58
2023/06/21 00:38:34;;;;;;;21.02;13.40;;;21.40;34.20;;;;;;5073985;28;20016;-58
2023/06/21 00:41:02;;;;;;;24.00;13.75;;;21.40;47.70;;;;;;5074465;28;20506;-58
2023/06/21 00:43:27;;;;;;;18.00;12.88;;;21.30;40.00;;;;;;5074328;28;20028;-59
2023/06/21 00:45:54;;;;;;;18.35;13.45;;;21.20;41.20;;;;;;5074347;28;20032;-58
2023/06/21 00:48:20;;;;;;;20.25;12.18;;;21.20;51.80;;;;;;5073766;28;20628;-58
2023/06/21 00:50:45;;;;;;;19.92;12.75;;;21.10;53.50;;;;;;5073946;28;20025;-58
2023/06/21 00:53:11;;;;;;;21.58;12.95;;;21.00;59.60;;;;;;5074056;28;20028;-59
2023/06/21 00:55:40;;;;;;;22.15;12.95;;;21.00;62.30;;;;;;5073896;28;20498;-58
2023/06/21 00:58:06;;;;;;;14.73;11.10;;;21.00;53.90;;;;;;5073736;28;20551;-58
2023/06/21 01:00:32;;;;;;;21.23;12.45;;;20.80;56.30;;;;;;5074028;28;20032;-58
2023/06/21 01:02:57;;;;;;;14.77;11.77;;;20.80;65.10;;;;;;5073739;28;20503;-58
2023/06/21 01:05:25;;;;;;;24.95;11.90;;;20.80;65.80;;;;;;5073569;28;20560;-58
2023/06/21 01:08:21;;;;;;;27.08;11.40;;;20.80;64.40;;;;;;5072455;28;20025;-58
2023/06/21 01:11:12;;;;;;;17.67;11.15;;;20.80;55.40;;;;;;5073793;28;20021;-58
2023/06/21 01:14:06;;;;;;;21.13;13.02;;;20.70;59.70;;;;;;5073602;28;20039;-58
2023/06/21 01:16:39;;;;;;;17.17;10.73;;;20.70;56.90;;;;;;5073679;28;20024;-58
2023/06/21 01:19:07;;;;;;;16.00;10.73;;;20.80;42.70;;;;;;5072307;28;20423;-58
2023/06/21 01:21:34;;;;;;;17.50;13.18;;;20.80;40.50;;;;;;5073743;28;20052;-58
2023/06/21 01:24:02;;;;;;;21.42;12.23;;;20.80;63.80;;;;;;5072590;28;20024;-58
2023/06/21 01:26:32;;;;;;;25.25;11.90;;;20.60;60.90;;;;;;5072237;28;20077;-58
2023/06/21 01:29:07;;;;;;;20.58;12.43;;;20.60;54.60;;;;;;5072565;28;20035;-59
2023/06/21 01:31:33;;;;;;;22.58;12.43;;;20.70;53.50;;;;;;5073147;28;20032;-58
2023/06/21 01:33:59;;;;;;;18.08;11.27;;;20.50;64.60;;;;;;5072599;28;20025;-59
2023/06/21 01:36:26;;;;;;;19.17;11.63;;;20.40;63.80;;;;;;5072228;28;20491;-58
2023/06/21 01:38:56;;;;;;;22.02;12.07;;;20.40;64.00;;;;;;5072651;28;20106;-58
2023/06/21 01:41:22;;;;;;;22.48;11.32;;;20.30;62.70;;;;;;5072808;28;20031;-58
2023/06/21 01:43:48;;;;;;;17.63;11.48;;;20.30;63.90;;;;;;5072837;28;20049;-58
2023/06/21 01:46:14;;;;;;;22.65;11.15;;;20.30;56.90;;;;;;5072595;28;20082;-58
2023/06/21 01:48:42;;;;;;;18.90;11.07;;;20.20;72.10;;;;;;5072865;28;20055;-58
2023/06/21 01:51:09;;;;;;;24.10;11.02;;;20.00;71.80;;;;;;5073114;28;20021;-56
2023/06/21 01:53:36;;;;;;;17.42;12.07;;;20.00;75.60;;;;;;5071574;28;20131;-58
2023/06/21 01:56:08;;;;;;;17.17;10.73;;;19.80;73.20;;;;;;5072920;28;20029;-56
2023/06/21 01:58:34;;;;;;;22.42;13.00;;;19.80;74.90;;;;;;5072647;28;20050;-58
2023/06/21 02:01:01;;;;;;;18.23;13.07;;;19.70;75.70;;;;;;5072932;28;20032;-58
2023/06/21 02:03:28;;;;;;;19.23;12.55;;;19.70;82.00;;;;;;5072375;28;20032;-58
2023/06/21 02:05:56;;;;;;;21.35;12.15;;;19.60;81.90;;;;;;5072573;28;20024;-58
2023/06/21 02:08:22;;;;;;;18.20;12.65;;;19.60;81.90;;;;;;5072274;28;20044;-58
2023/06/21 02:10:49;;;;;;;24.83;12.88;;;19.50;76.90;;;;;;5072426;28;20028;-56
2023/06/21 02:13:16;;;;;;;16.95;11.43;;;19.40;81.00;;;;;;5072277;28;20070;-59
2023/06/21 02:15:42;;;;;;;21.25;13.00;;;19.40;83.20;;;;;;5072554;28;20033;-58
2023/06/21 02:18:09;;;;;;;22.17;12.40;;;19.40;86.70;;;;;;5072128;28;20028;-58
2023/06/21 02:20:35;;;;;;;26.63;13.68;;;19.30;88.20;;;;;;5072547;28;20141;-58
2023/06/21 02:23:01;;;;;;;26.17;13.98;;;19.30;91.50;;;;;;5072144;28;20029;-56
2023/06/21 02:25:27;;;;;;;23.38;13.80;;;19.20;90.00;;;;;;5072174;28;20039;-59
2023/06/21 02:27:53;;;;;;;19.08;13.38;;;19.20;92.80;;;;;;5072298;28;20036;-58
2023/06/21 02:30:19;;;;;;;21.23;13.27;;;19.20;94.30;;;;;;5072275;28;20020;-58
2023/06/21 02:32:44;;;;;;;21.60;13.30;;;19.20;93.80;;;;;;5072268;28;20032;-56
2023/06/21 02:35:10;;;;;;;21.52;14.13;;;19.20;92.30;;;;;;5071711;28;20028;-58
2023/06/21 02:37:37;;;;;;;24.15;14.10;;;19.10;91.20;;;;;;5071683;28;20345;-58
2023/06/21 02:40:09;;;;;;;24.77;14.35;;;19.10;90.90;;;;;;5071781;28;20029;-58
2023/06/21 02:42:35;;;;;;;24.67;13.93;;;19.00;88.80;;;;;;5071731;28;20021;-58
2023/06/21 02:45:01;;;;;;;22.90;13.60;;;18.90;90.90;;;;;;5071678;28;20043;-58
2023/06/21 02:47:26;;;;;;;23.52;14.18;;;18.90;91.70;;;;;;5071395;28;20066;-57
2023/06/21 02:49:58;;;;;;;25.27;14.15;;;18.80;90.20;;;;;;5071607;28;20020;-57
2023/06/21 02:52:23;;;;;;;25.05;14.95;;;18.80;92.00;;;;;;5071219;28;20016;-57
2023/06/21 02:54:51;;;;;;;18.70;14.23;;;18.90;94.50;;;;;;5071324;28;20024;-57
2023/06/21 02:57:17;;;;;;;26.15;14.52;;;18.80;94.10;;;;;;5069395;28;20044;-58
2023/06/21 02:59:43;;;;;;;21.63;13.75;;;18.80;93.80;;;;;;5071476;28;20525;-58
2023/06/21 03:02:09;;;;;;;28.33;15.07;;;18.80;94.70;;;;;;5071113;28;20357;-58
2023/06/21 03:04:35;;;;;;;21.00;14.32;;;18.90;95.70;;;;;;5071582;28;20047;-57
2023/06/21 03:07:01;;;;;;;20.42;14.15;;;18.90;95.70;;;;;;5070967;28;20032;-56
2023/06/21 03:09:27;;;;;;;21.60;14.65;;;18.90;95.20;;;;;;5070987;28;20059;-55
2023/06/21 03:11:53;;;;;;;17.75;12.55;;;18.90;95.30;;;;;;5071088;28;20021;-56
2023/06/21 03:14:18;;;;;;;26.92;14.35;;;18.90;93.70;;;;;;5070980;28;20082;-58
2023/06/21 03:16:45;;;;;;;21.13;14.38;;;18.90;92.80;;;;;;5071287;28;20454;-58
2023/06/21 03:19:12;;;;;;;23.27;15.68;;;18.90;94.80;;;;;;5071297;28;20107;-58
2023/06/21 03:21:37;;;;;;;26.60;13.75;;;18.90;92.50;;;;;;5071563;28;20112;-59
2023/06/21 03:24:03;;;;;;;19.35;13.93;;;18.90;91.70;;;;;;5071642;28;20111;-58
2023/06/21 03:26:29;;;;;;;26.08;15.57;;;18.90;92.00;;;;;;5071370;28;20029;-58
2023/06/21 03:28:57;;;;;;;19.92;14.65;;;18.90;91.50;;;;;;5071623;28;20415;-57
2023/06/21 03:34:45;;;;;;;24.55;15.00;;;18.90;92.10;;;;;;5071468;28;20510;-58
2023/06/21 03:37:10;;;;;;;21.33;14.93;;;18.90;91.40;;;;;;5071397;28;20033;-57
2023/06/21 03:39:36;;;;;;;20.35;15.27;;;18.90;91.90;;;;;;5071508;28;20456;-59
2023/06/21 03:42:01;;;;;;;19.13;13.38;;;18.90;91.50;;;;;;5071363;28;20028;-58
2023/06/21 03:44:27;;;;;;;20.02;14.02;;;18.80;82.60;;;;;;5071156;28;20025;-58
2023/06/21 03:46:53;;;;;;;23.90;13.75;;;18.80;83.00;;;;;;5071384;28;20036;-57
2023/06/21 03:49:20;;;;;;;31.60;13.40;;;18.70;86.20;;;;;;5071243;28;20104;-57
2023/06/21 03:51:46;;;;;;;35.20;13.13;;;18.70;90.00;;;;;;5071357;28;20051;-59
2023/06/21 03:54:12;;;;;;;24.77;13.35;;;18.70;84.50;;;;;;5071207;28;20052;-56
2023/06/21 03:56:38;;;;;;;20.38;13.35;;;18.70;86.20;;;;;;5071196;28;20064;-58
2023/06/21 03:59:03;;;;;;;19.45;13.13;;;18.80;86.40;;;;;;5071253;28;20032;-57
2023/06/21 04:01:29;;;;;;;17.75;11.65;;;18.80;86.40;;;;;;5071136;28;20024;-57
2023/06/21 04:03:55;;;;;;;18.02;12.07;;;18.70;81.00;;;;;;5071187;28;20452;-58
2023/06/21 04:06:21;;;;;;;19.42;13.02;;;18.70;80.90;;;;;;5070775;28;20027;-58
2023/06/21 04:08:47;;;;;;;24.40;11.60;;;18.80;81.30;;;;;;5070882;28;20025;-58
2023/06/21 04:11:13;;;;;;;23.77;13.57;;;18.90;86.10;;;;;;5070239;28;20023;-59
2023/06/21 04:13:39;;;;;;;17.35;13.00;;;18.90;80.20;;;;;;5070774;28;20434;-58
2023/06/21 04:16:05;;;;;;;22.00;13.40;;;19.00;80.60;;;;;;5070730;28;20024;-58
2023/06/21 04:18:31;;;;;;;20.73;13.05;;;19.10;79.60;;;;;;5070824;28;20029;-58
2023/06/21 04:20:56;;;;;;;20.48;11.60;;;19.00;75.00;;;;;;5070525;28;20017;-57
2023/06/21 04:23:22;;;;;;;27.70;14.00;;;19.10;79.10;;;;;;5070603;28;20071;-57
2023/06/21 04:25:48;;;;;;;24.33;15.38;;;19.30;76.50;;;;;;5070614;28;20020;-59
2023/06/21 04:28:14;;;;;;;21.88;13.82;;;19.30;70.70;;;;;;5069232;28;20027;-58
2023/06/21 04:30:41;;;;;;;19.98;14.88;;;19.20;81.40;;;;;;5070726;28;20017;-58
2023/06/21 04:33:07;;;;;;;17.52;13.55;;;19.20;79.30;;;;;;5070567;28;20017;-58
2023/06/21 04:35:33;;;;;;;18.02;13.30;;;19.40;82.00;;;;;;5070753;28;20510;-55
2023/06/21 04:38:00;;;;;;;32.70;14.07;;;19.40;79.40;;;;;;5070667;28;20036;-58
2023/06/21 04:40:26;;;;;;;19.90;12.77;;;19.50;75.10;;;;;;5070532;28;20028;-56
2023/06/21 04:42:54;;;;;;;20.73;12.95;;;19.50;74.90;;;;;;5073355;28;20039;-59
2023/06/21 04:45:21;;;;;;;16.02;12.10;;;19.60;79.00;;;;;;5073906;28;20028;-58
2023/06/21 04:47:47;;;;;;;22.63;13.38;;;19.70;78.20;;;;;;5074228;28;20048;-59
2023/06/21 04:50:14;;;;;;;17.10;12.40;;;19.70;78.60;;;;;;5073932;28;20025;-58
2023/06/21 04:52:40;;;;;;;22.65;12.27;;;19.80;83.00;;;;;;5074059;28;20052;-59
2023/06/21 04:55:07;;;;;;;18.00;12.02;;;20.00;85.10;;;;;;5073859;28;20105;-59
2023/06/21 04:57:34;;;;;;;20.20;12.60;;;20.30;71.50;;;;;;5073727;28;20041;-58
2023/06/21 05:00:06;;;;;;;20.23;13.50;;;20.50;63.30;;;;;;5072720;28;20452;-59
2023/06/21 05:02:32;;;;;;;20.63;12.23;;;20.60;53.70;;;;;;5072515;28;20476;-58
2023/06/21 05:04:58;;;;;;;27.48;13.77;;;20.70;49.40;;;;;;5073767;28;20070;-59
2023/06/21 05:07:23;;;;;;;19.83;12.48;;;20.80;47.50;;;;;;5073599;28;20024;-59
2023/06/21 05:09:49;;;;;;;18.45;12.85;;;20.80;45.90;;;;;;5073711;28;20020;-58
2023/06/21 05:12:14;;;;;;;19.63;13.82;;;20.90;40.90;;;;;;5073723;28;20099;-57
2023/06/21 05:14:40;;;;;;;17.02;12.43;;;20.90;44.20;;;;;;5073431;28;20021;-58
2023/06/21 05:17:06;;;;;;;19.42;12.68;;;20.90;46.00;;;;;;5073359;28;20028;-57
2023/06/21 05:19:31;;;;;;;20.27;12.60;;;20.90;48.90;;;;;;5073534;28;20460;-59
2023/06/21 05:21:57;;;;;;;20.38;12.80;;;20.90;40.30;;;;;;5073528;28;20107;-59
2023/06/21 05:24:23;;;;;;;14.10;11.45;;;21.00;46.90;;;;;;5073279;28;20039;-58
2023/06/21 05:26:48;;;;;;;15.85;11.60;;;21.10;46.30;;;;;;5073247;28;20024;-58
2023/06/21 05:29:14;;;;;;;21.23;13.75;;;21.10;49.40;;;;;;5073235;28;20024;-59
2023/06/21 05:31:43;;;;;;;20.33;14.15;;;21.20;48.00;;;;;;5073046;28;20090;-58
2023/06/21 05:34:12;;;;;;;22.00;12.65;;;21.20;38.00;;;;;;5073090;28;20025;-58
2023/06/21 05:36:38;;;;;;;25.23;13.10;;;21.30;40.40;;;;;;5072509;28;20028;-58
2023/06/21 05:39:04;;;;;;;21.02;13.65;;;21.30;29.90;;;;;;5073259;28;20028;-58
2023/06/21 05:41:30;;;;;;;17.08;11.73;;;21.40;30.50;;;;;;5072851;28;20024;-58
2023/06/21 05:43:55;;;;;;;18.50;12.60;;;21.60;22.20;;;;;;5072974;28;20497;-59
2023/06/21 05:46:21;;;;;;;18.52;12.95;;;21.60;19.50;;;;;;5072699;28;20056;-59
2023/06/21 05:48:47;;;;;;;19.30;11.90;;;21.80;26.10;;;;;;5071729;28;20028;-59
2023/06/21 05:51:12;;;;;;;21.17;13.23;;;22.00;11.50;;;;;;5073099;28;20016;-59
2023/06/21 05:53:38;;;;;;;19.50;10.95;;;22.10;3.20;;;;;;5072547;28;20472;-58
2023/06/21 05:56:04;;;;;;;25.15;11.40;;;22.30;1.00;;;;;;5073033;28;20368;-58
2023/06/21 05:58:30;;;;;;;20.27;12.15;;;22.40;1.00;;;;;;5072779;28;20076;-58
2023/06/21 06:00:56;;;;;;;14.88;10.60;;;22.50;1.00;;;;;;5073086;28;20020;-59
2023/06/21 06:03:21;;;;;;;15.60;11.48;;;22.60;1.00;;;;;;5072743;28;20115;-59
2023/06/21 06:05:49;;;;;;;22.00;11.65;;;22.60;1.00;;;;;;5072808;28;20118;-58
2023/06/21 06:08:15;;;;;;;14.68;11.02;;;22.70;1.00;;;;;;5072691;28;20024;-59
2023/06/21 06:10:42;;;;;;;21.27;11.90;;;22.80;1.00;;;;;;5072596;28;20048;-59
2023/06/21 06:13:07;;;;;;;17.40;11.63;;;22.80;1.00;;;;;;5072649;28;20009;-59
2023/06/21 06:15:33;;;;;;;20.95;12.75;;;22.90;1.00;;;;;;5072572;28;20029;-59
2023/06/21 06:17:59;;;;;;;12.07;10.77;;;22.80;1.00;;;;;;5072619;28;20384;-58
2023/06/21 06:20:26;;;;;;;26.52;13.15;;;22.80;1.00;;;;;;5072359;28;20021;-59
2023/06/21 06:22:52;;;;;;;18.88;12.07;;;22.70;1.00;;;;;;5072572;28;20025;-57
2023/06/21 06:25:18;;;;;;;23.00;13.45;;;22.80;1.00;;;;;;5072322;28;20074;-59
2023/06/21 06:27:44;;;;;;;21.30;11.95;;;22.70;1.00;;;;;;5072410;28;20016;-59
2023/06/21 06:30:10;;;;;;;19.08;12.20;;;22.60;3.20;;;;;;5071009;28;20341;-59
2023/06/21 06:32:36;;;;;;;19.33;12.05;;;22.80;1.00;;;;;;5072318;28;20024;-58
2023/06/21 06:35:02;;;;;;;14.48;12.05;;;22.80;1.00;;;;;;5071060;28;20095;-58
2023/06/21 06:37:28;;;;;;;22.48;13.63;;;22.90;1.00;;;;;;5072056;28;21025;-59
2023/06/21 06:39:55;;;;;;;18.80;13.50;;;22.90;1.00;;;;;;5070342;28;20033;-59
2023/06/21 06:42:22;;;;;;;17.42;12.20;;;22.90;1.00;;;;;;5071986;28;20029;-59
2023/06/21 06:44:47;;;;;;;25.35;13.23;;;23.00;1.00;;;;;;5071868;28;20532;-59
2023/06/21 06:47:13;;;;;;;16.77;12.15;;;23.10;1.00;;;;;;5071799;28;20028;-59
2023/06/21 06:49:39;;;;;;;17.23;11.65;;;23.30;1.00;;;;;;5071975;28;20020;-59
2023/06/21 06:52:06;;;;;;;18.88;11.52;;;23.50;1.00;;;;;;5071980;28;20157;-58
2023/06/21 06:54:32;;;;;;;20.73;12.98;;;23.60;1.00;;;;;;5071978;28;20028;-59
2023/06/21 06:56:58;;;;;;;19.27;10.85;;;23.70;1.00;;;;;;5071654;28;20044;-59
2023/06/21 06:59:23;;;;;;;19.08;11.10;;;23.80;1.00;;;;;;5071569;28;20028;-59
2023/06/21 07:01:50;;;;;;;20.98;12.05;;;23.90;1.00;;;;;;5071694;28;20025;-59
2023/06/21 07:04:16;;;;;;;16.40;11.45;;;23.90;1.00;;;;;;5070908;28;20024;-59
2023/06/21 07:06:41;;;;;;;19.10;11.48;;;23.80;1.00;;;;;;5068918;28;20367;-57
2023/06/21 07:09:08;;;;;;;20.75;11.93;;;24.10;1.00;;;;;;5070846;28;20025;-57
2023/06/21 07:11:34;;;;;;;22.95;10.95;;;24.30;1.00;;;;;;5070900;28;20017;-59
2023/06/21 07:14:00;;;;;;;25.10;12.02;;;24.50;1.00;;;;;;5071054;28;20032;-59
2023/06/21 07:16:26;;;;;;;17.98;10.07;;;24.60;1.00;;;;;;5070518;28;20033;-59
2023/06/21 07:18:51;;;;;;;19.15;10.77;;;24.70;1.00;;;;;;5070509;28;20096;-59
2023/06/21 07:21:18;;;;;;;18.30;10.50;;;24.90;99.90;;;;;;5070797;28;20387;-59
2023/06/21 07:23:44;;;;;;;21.60;9.25;;;25.00;99.90;;;;;;5070985;28;20012;-59
2023/06/21 07:26:10;;;;;;;15.38;9.00;;;25.10;99.90;;;;;;5070852;28;20051;-59
2023/06/21 07:28:35;;;;;;;22.30;9.05;;;25.20;99.90;;;;;;5071558;28;20467;-58
2023/06/21 07:31:03;;;;;;;15.50;8.52;;;25.30;99.90;;;;;;5071196;28;20070;-58
2023/06/21 07:33:28;;;;;;;14.10;8.13;;;25.40;99.90;;;;;;5071051;28;20024;-59
2023/06/21 07:35:54;;;;;;;16.05;10.32;;;25.60;52.20;;;;;;5071505;28;20025;-59
2023/06/21 07:38:20;;;;;;;22.10;10.05;;;25.80;1.00;;;;;;5070932;28;20032;-58
2023/06/21 07:40:45;;;;;;;22.30;9.65;;;25.90;1.00;;;;;;5071169;28;20069;-59
2023/06/21 07:43:11;;;;;;;15.93;8.55;;;25.90;99.90;;;;;;5071069;28;20368;-59
2023/06/21 07:45:37;;;;;;;11.02;8.48;;;26.00;1.00;;;;;;5071259;28;20033;-59
2023/06/21 07:48:02;;;;;;;24.52;9.88;;;26.20;1.00;;;;;;5071134;28;20411;-59
2023/06/21 07:50:28;;;;;;;21.10;9.55;;;26.20;1.00;;;;;;5071089;28;20491;-59
2023/06/21 07:52:54;;;;;;;15.52;8.82;;;26.30;90.10;;;;;;5071323;28;20024;-59
2023/06/21 07:55:20;;;;;;;15.13;8.88;;;26.20;99.90;;;;;;5071100;28;20035;-59
2023/06/21 07:57:47;;;;;;;21.90;9.45;;;26.30;1.00;;;;;;5070965;28;20047;-59
2023/06/21 08:00:12;;;;;;;17.67;8.57;;;26.40;1.00;;;;;;5070976;28;20651;-59
2023/06/21 08:02:40;;;;;;;21.60;9.98;;;26.30;99.90;;;;;;5071069;28;20019;-59
2023/06/21 08:05:06;;;;;;;18.50;7.95;;;26.30;99.90;;;;;;5070961;28;20052;-59
2023/06/21 08:07:32;;;;;;;16.55;8.82;;;26.30;99.90;;;;;;5071182;28;20048;-58
2023/06/21 08:09:58;;;;;;;26.77;9.10;;;26.40;76.80;;;;;;5071220;28;20058;-59
2023/06/21 08:12:24;;;;;;;17.30;8.32;;;26.40;1.00;;;;;;5070675;28;20040;-59
2023/06/21 08:14:49;;;;;;;16.00;8.48;;;26.40;1.00;;;;;;5069599;28;20063;-59
2023/06/21 08:17:15;;;;;;;15.13;8.93;;;26.50;1.00;;;;;;5071507;28;20097;-59
2023/06/21 08:19:40;;;;;;;16.67;8.52;;;26.60;99.90;;;;;;5073585;28;20540;-59
2023/06/21 08:22:06;;;;;;;19.73;9.07;;;26.60;1.00;;;;;;5073543;28;20028;-59
2023/06/21 08:24:33;;;;;;;16.27;8.98;;;26.70;99.90;;;;;;5073597;28;20040;-59
2023/06/21 08:26:59;;;;;;;11.95;7.15;;;26.80;99.90;;;;;;5073477;28;20031;-59
2023/06/21 08:29:25;;;;;;;26.45;9.57;;;26.90;99.90;;;;;;5073334;28;20260;-59
2023/06/21 08:31:50;;;;;;;21.60;9.43;;;27.10;1.00;;;;;;5073173;28;20444;-59
2023/06/21 08:34:16;;;;;;;16.83;9.30;;;27.20;5.30;;;;;;5073145;28;20103;-59
2023/06/21 08:36:43;;;;;;;13.55;9.20;;;27.40;38.20;;;;;;5073289;28;20123;-59
2023/06/21 08:39:08;;;;;;;15.55;9.95;;;27.40;1.00;;;;;;5073106;28;20441;-59
2023/06/21 08:41:39;;;;;;;18.05;9.20;;;27.60;99.90;;;;;;5073197;28;20021;-59
2023/06/21 08:44:05;;;;;;;17.42;9.15;;;27.70;1.00;;;;;;5071801;28;20064;-59
2023/06/21 08:46:34;;;;;;;29.95;10.48;;;27.80;1.00;;;;;;5072897;28;20063;-59
2023/06/21 08:49:03;;;;;;;16.00;9.98;;;28.00;1.00;;;;;;5073094;28;20016;-59
2023/06/21 08:51:30;;;;;;;17.02;9.50;;;28.20;99.90;;;;;;5071277;28;20025;-59
2023/06/21 08:54:06;;;;;;;21.40;8.82;;;27.90;99.90;;;;;;5072848;28;20020;-60
2023/06/21 08:56:56;;;;;;;22.35;9.23;;;28.20;99.90;;;;;;5072992;28;20083;-59
2023/06/21 08:59:39;;;;;;;14.10;8.30;;;28.40;99.90;;;;;;5071172;28;20051;-59
2023/06/21 09:02:12;;;;;;;19.77;9.20;;;28.70;1.00;;;;;;5072565;28;20028;-59
2023/06/21 09:04:45;;;;;;;17.77;9.07;;;28.50;1.00;;;;;;5070933;28;20029;-60
2023/06/21 09:07:30;;;;;;;14.05;8.70;;;28.50;1.00;;;;;;5072719;28;20537;-59
2023/06/21 09:09:58;;;;;;;17.75;9.75;;;28.80;1.00;;;;;;5073755;28;20025;-60
2023/06/21 09:12:26;;;;;;;16.27;9.50;;;29.00;99.90;;;;;;5073398;28;20019;-60
2023/06/21 09:14:52;;;;;;;25.58;17.10;;;28.90;99.90;;;;;;5073889;28;20063;-59
2023/06/21 09:17:18;;;;;;;24.02;9.48;;;29.00;99.90;;;;;;5073730;28;20040;-59
2023/06/21 09:19:44;;;;;;;13.02;9.30;;;29.40;99.90;;;;;;5073698;28;20475;-59
2023/06/21 09:22:13;;;;;;;19.13;9.70;;;29.30;74.00;;;;;;5072230;28;20028;-59
2023/06/21 09:24:38;;;;;;;27.65;8.95;;;29.60;1.00;;;;;;5072805;28;20052;-59
2023/06/21 09:27:04;;;;;;;14.93;8.15;;;29.70;1.00;;;;;;5073613;28;20059;-59
2023/06/21 09:29:31;;;;;;;20.27;8.77;;;30.00;1.00;;;;;;5072410;28;20021;-59
2023/06/21 09:31:56;;;;;;;23.60;8.88;;;29.70;99.90;;;;;;5073150;28;20024;-59
2023/06/21 09:34:22;;;;;;;20.77;9.77;;;29.50;99.90;;;;;;5071933;28;20028;-59
2023/06/21 09:37:03;;;;;;;13.32;9.00;;;29.60;99.90;;;;;;5073519;28;20048;-59
2023/06/21 09:39:29;;;;;;;16.42;9.13;;;29.50;99.90;;;;;;5073149;28;20028;-59
2023/06/21 09:41:55;;;;;;;20.42;8.32;;;29.80;99.90;;;;;;5073110;28;20028;-59
2023/06/21 09:44:21;;;;;;;16.52;8.57;;;30.10;99.90;;;;;;5072884;28;20116;-59
2023/06/21 09:46:47;;;;;;;12.82;8.00;;;30.50;99.90;;;;;;5072885;28;20107;-59
2023/06/21 09:49:13;;;;;;;13.68;7.53;;;30.60;99.90;;;;;;5072927;28;20028;-59
2023/06/21 09:51:46;;;;;;;14.25;8.43;;;30.50;99.90;;;;;;5072977;28;20024;-59
2023/06/21 09:54:11;;;;;;;14.23;8.30;;;30.80;99.90;;;;;;5072919;28;20471;-59
2023/06/21 09:56:37;;;;;;;12.85;7.65;;;30.80;99.90;;;;;;5072788;28;20075;-59
2023/06/21 09:59:13;;;;;;;20.70;8.30;;;30.90;99.90;;;;;;5072859;28;20112;-59
2023/06/21 10:01:44;;;;;;;14.80;9.30;;;31.00;99.90;;;;;;5072660;28;20028;-59
2023/06/21 10:04:12;;;;;;;30.48;9.20;;;31.10;99.90;;;;;;5072654;28;20048;-59
2023/06/21 10:06:38;;;;;;;23.77;8.57;;;31.10;99.90;;;;;;5072608;28;20054;-59
2023/06/21 10:09:09;;;;;;;14.88;7.93;;;31.20;82.20;;;;;;5072610;28;20017;-59
2023/06/21 10:11:36;;;;;;;23.63;8.52;;;31.60;93.60;;;;;;5071850;28;20390;-59
2023/06/21 10:14:02;;;;;;;16.20;7.72;;;32.00;41.20;;;;;;5070932;28;20032;-59
2023/06/21 10:16:27;;;;;;;14.27;8.10;;;31.80;37.80;;;;;;5071941;28;20468;-59
2023/06/21 10:18:55;;;;;;;21.65;9.63;;;31.80;3.20;;;;;;5072347;28;20570;-59
2023/06/21 10:21:23;;;;;;;16.08;7.68;;;32.10;1.00;;;;;;5072010;28;20487;-59
2023/06/21 10:23:50;;;;;;;24.10;8.27;;;32.20;1.00;;;;;;5072345;28;20016;-59
2023/06/21 10:26:17;;;;;;;18.48;8.45;;;32.10;1.00;;;;;;5071566;28;20024;-59
2023/06/21 10:28:45;;;;;;;25.40;8.18;;;32.00;1.00;;;;;;5071607;28;20017;-59
2023/06/21 10:31:12;;;;;;;15.38;7.85;;;32.00;1.00;;;;;;5071518;28;20410;-59
2023/06/21 10:33:39;;;;;;;11.25;7.20;;;32.30;1.00;;;;;;5072211;28;20052;-59
2023/06/21 10:36:09;;;;;;;21.80;8.98;;;31.60;1.00;;;;;;5072039;28;20111;-59
2023/06/21 10:38:47;;;;;;;13.93;7.80;;;31.60;1.00;;;;;;5072109;28;20036;-59
2023/06/21 10:41:14;;;;;;;17.27;8.07;;;31.80;1.00;;;;;;5070382;28;20046;-58
2023/06/21 10:43:41;;;;;;;11.73;7.80;;;32.20;1.00;;;;;;5072031;28;20020;-59
2023/06/21 10:46:09;;;;;;;19.33;8.82;;;32.60;1.00;;;;;;5072025;28;20116;-58
2023/06/21 10:48:36;;;;;;;15.93;8.00;;;32.30;1.00;;;;;;5071934;28;20494;-59
2023/06/21 10:51:03;;;;;;;15.63;8.25;;;32.50;1.00;;;;;;5072039;28;20044;-58
2023/06/21 10:53:32;;;;;;;17.92;8.00;;;32.40;1.00;;;;;;5071536;28;20105;-59
2023/06/21 10:55:59;;;;;;;18.30;8.85;;;32.40;1.00;;;;;;5071987;28;20025;-59
2023/06/21 10:58:25;;;;;;;17.33;8.52;;;32.80;1.00;;;;;;5071490;28;20740;-59
2023/06/21 11:00:51;;;;;;;13.55;7.80;;;32.80;1.00;;;;;;5071740;28;20028;-59
2023/06/21 11:03:23;;;;;;;14.63;8.20;;;32.80;1.00;;;;;;5071661;28;20058;-59
2023/06/21 11:05:55;;;;;;;18.80;9.18;;;33.30;1.00;;;;;;5071612;28;20044;-60
2023/06/21 11:08:36;;;;;;;14.98;8.55;;;33.60;1.00;;;;;;5071255;28;20027;-59
2023/06/21 11:11:02;;;;;;;17.42;8.55;;;33.60;1.00;;;;;;5071632;28;20028;-59
2023/06/21 11:13:38;;;;;;;19.55;8.23;;;33.60;1.00;;;;;;5071357;28;20086;-59
2023/06/21 11:16:17;;;;;;;17.10;9.00;;;33.20;1.00;;;;;;5071780;28;20375;-59
2023/06/21 11:18:56;;;;;;;17.80;9.25;;;33.40;1.00;;;;;;5071286;28;20082;-60
2023/06/21 11:21:45;;;;;;;17.45;8.80;;;33.40;1.00;;;;;;5071625;28;20422;-60
2023/06/21 11:24:18;;;;;;;15.52;8.25;;;33.90;1.00;;;;;;5071512;28;20044;-59
2023/06/21 11:27:03;;;;;;;17.25;8.57;;;34.20;1.00;;;;;;5071406;28;20039;-59
2023/06/21 11:29:34;;;;;;;21.83;8.18;;;35.00;1.00;;;;;;5071469;28;20074;-59
2023/06/21 11:32:18;;;;;;;21.48;8.65;;;35.10;1.00;;;;;;5071554;28;20099;-59
2023/06/21 11:34:50;;;;;;;18.17;8.90;;;35.00;1.00;;;;;;5071491;28;20039;-59
2023/06/21 11:37:41;;;;;;;19.95;7.78;;;34.60;1.00;;;;;;5071170;28;20055;-60
2023/06/21 11:40:09;;;;;;;14.05;7.82;;;34.30;1.00;;;;;;5071213;28;20054;-59
2023/06/21 11:42:37;;;;;;;12.32;8.27;;;33.90;1.00;;;;;;5071320;28;20059;-59
2023/06/21 11:45:18;;;;;;;15.75;8.63;;;33.60;1.00;;;;;;5071232;28;20526;-59
2023/06/21 11:48:02;;;;;;;20.40;9.25;;;33.40;1.00;;;;;;5071313;28;20070;-59
2023/06/21 11:50:35;;;;;;;24.08;9.63;;;33.50;1.00;;;;;;5071034;28;20032;-59
2023/06/21 11:53:26;;;;;;;19.77;8.95;;;33.80;1.00;;;;;;5074719;28;20114;-59
2023/06/21 11:55:56;;;;;;;18.30;8.38;;;34.40;1.00;;;;;;5075205;28;20025;-60
2023/06/21 11:58:23;;;;;;;14.85;8.90;;;34.20;1.00;;;;;;5075049;28;20044;-59
2023/06/21 12:00:49;;;;;;;18.13;9.73;;;34.20;1.00;;;;;;5073835;28;20375;-60
2023/06/21 12:03:15;;;;;;;21.13;9.63;;;34.70;1.00;;;;;;5075059;28;20028;-59
2023/06/21 12:05:47;;;;;;;15.23;8.45;;;35.40;1.00;;;;;;5075014;28;20541;-59
2023/06/21 12:08:34;;;;;;;15.57;8.80;;;35.70;1.00;;;;;;5074824;28;20032;-59
2023/06/21 12:11:02;;;;;;;22.08;9.98;;;35.40;1.00;;;;;;5074686;28;20035;-59
2023/06/21 12:13:28;;;;;;;23.60;9.02;;;35.30;1.00;;;;;;5074812;28;20107;-60
2023/06/21 12:15:58;;;;;;;15.88;8.50;;;35.30;1.00;;;;;;5074742;28;20024;-59
2023/06/21 12:18:25;;;;;;;14.20;8.30;;;34.90;1.00;;;;;;5074632;28;20024;-59
2023/06/21 12:20:54;;;;;;;18.38;9.60;;;34.90;1.00;;;;;;5074810;28;20025;-59
2023/06/21 12:23:20;;;;;;;19.35;9.05;;;35.90;1.00;;;;;;5073186;28;20033;-59
2023/06/21 12:25:51;;;;;;;25.00;8.18;;;36.70;1.00;;;;;;5074668;28;20035;-60
2023/06/21 12:28:19;;;;;;;21.48;7.63;;;36.80;99.90;;;;;;5074354;28;20031;-59
2023/06/21 12:31:08;;;;;;;16.20;7.90;;;36.60;99.90;;;;;;5074673;28;20479;-60
2023/06/21 12:33:39;;;;;;;21.50;7.97;;;37.30;99.90;;;;;;5074467;28;20638;-58
2023/06/21 12:36:37;;;;;;;18.92;7.72;;;35.50;99.90;;;;;;5073518;28;20025;-58
2023/06/21 12:39:07;;;;;;;26.92;8.27;;;34.30;99.90;;;;;;5074261;28;20039;-59
2023/06/21 12:41:34;;;;;;;14.60;8.50;;;34.40;99.90;;;;;;5074398;28;20024;-60
2023/06/21 12:44:02;;;;;;;16.45;7.10;;;34.20;99.90;;;;;;5074237;28;20029;-59